Time;durP1;ratioP1;P1;durP2;ratioP2;P2;SDS_P1;SDS_P2;PMS_P1;PMS_P2;Temp;Humidity;BMP_temperature;BMP_pressure;BME280_temperature;BME280_humidity;BME280_pressure;Samples;Min_cycle;Max_cycle;Signal;HPM_P1;HPM_P2
2023/02/14 00:01:41;;;;;;;6.20;4.97;;;;;;;;;;4970824;28;20034;-60
2023/02/14 00:04:07;;;;;;;6.43;5.53;;;;;;;;;;4976474;28;20033;-65
2023/02/14 00:06:34;;;;;;;6.70;5.50;;;;;;;;;;4969337;28;20129;-61
2023/02/14 00:09:00;;;;;;;7.20;5.35;;;;;;;;;;4968878;28;20394;-62
2023/02/14 00:11:25;;;;;;;7.13;5.32;;;;;;;;;;4982565;28;20054;-65
2023/02/14 00:16:34;;;;;;;6.38;4.97;;;;;;;;;;4979303;28;20423;-67
2023/02/14 00:19:02;;;;;;;6.43;4.70;;;;;;;;;;4987000;28;20018;-68
2023/02/14 00:21:27;;;;;;;7.25;5.45;;;;;;;;;;4956763;28;20270;-64
2023/02/14 00:23:53;;;;;;;7.13;5.43;;;;;;;;;;4986205;28;20534;-67
2023/02/14 00:26:18;;;;;;;5.47;4.63;;;;;;;;;;4986942;28;20116;-63
2023/02/14 00:28:43;;;;;;;7.03;5.43;;;;;;;;;;4985635;28;20276;-61
2023/02/14 00:31:09;;;;;;;6.80;5.28;;;;;;;;;;4984905;28;20316;-59
2023/02/14 00:33:34;;;;;;;5.95;4.90;;;;;;;;;;4986097;28;20018;-66
2023/02/14 00:36:01;;;;;;;6.77;5.20;;;;;;;;;;4968545;28;20029;-64
2023/02/14 00:38:26;;;;;;;7.68;5.68;;;;;;;;;;4969111;28;20366;-67
2023/02/14 00:40:51;;;;;;;6.43;5.35;;;;;;;;;;4987358;28;20109;-61
2023/02/14 00:43:17;;;;;;;7.17;5.67;;;;;;;;;;4990078;28;20022;-58
2023/02/14 00:45:42;;;;;;;6.87;5.47;;;;;;;;;;4987840;28;20694;-66
2023/02/14 00:48:07;;;;;;;6.30;5.32;;;;;;;;;;4978901;28;21036;-68
2023/02/14 00:50:32;;;;;;;6.60;4.90;;;;;;;;;;4989247;28;20060;-61
2023/02/14 00:52:58;;;;;;;6.07;4.80;;;;;;;;;;4988712;28;20273;-66
2023/02/14 00:55:23;;;;;;;7.13;5.50;;;;;;;;;;4989555;28;20328;-66
2023/02/14 00:57:48;;;;;;;6.23;5.37;;;;;;;;;;4990367;28;20482;-63
2023/02/14 01:00:14;;;;;;;7.43;5.43;;;;;;;;;;4972149;28;20645;-62
2023/02/14 01:02:39;;;;;;;6.38;5.30;;;;;;;;;;4971546;28;20342;-63
2023/02/14 01:05:04;;;;;;;6.38;4.85;;;;;;;;;;4989434;28;20052;-66
2023/02/14 01:07:30;;;;;;;6.45;5.15;;;;;;;;;;4988592;28;20125;-60
2023/02/14 01:09:55;;;;;;;7.03;5.33;;;;;;;;;;4985354;28;20050;-66
2023/02/14 01:12:20;;;;;;;6.87;5.13;;;;;;;;;;4989106;28;20281;-67
2023/02/14 01:14:45;;;;;;;6.70;5.30;;;;;;;;;;4987246;28;20411;-67
2023/02/14 01:17:11;;;;;;;6.47;5.13;;;;;;;;;;4988319;28;20614;-68
2023/02/14 01:19:37;;;;;;;5.90;4.80;;;;;;;;;;4987158;28;20360;-60
2023/02/14 01:22:02;;;;;;;6.63;5.03;;;;;;;;;;4982256;28;20121;-66
2023/02/14 01:24:27;;;;;;;6.68;5.60;;;;;;;;;;5002224;28;20482;-61
2023/02/14 01:26:52;;;;;;;7.33;5.60;;;;;;;;;;4989365;28;20045;-67
2023/02/14 01:29:18;;;;;;;6.57;5.07;;;;;;;;;;4993717;28;20282;-62
2023/02/14 01:31:43;;;;;;;6.75;5.45;;;;;;;;;;4986116;28;20086;-66
2023/02/14 01:34:09;;;;;;;6.75;5.10;;;;;;;;;;4989277;28;20038;-60
2023/02/14 01:36:35;;;;;;;7.03;5.50;;;;;;;;;;4988049;28;20034;-68
2023/02/14 01:39:01;;;;;;;7.03;5.45;;;;;;;;;;4972010;28;20459;-62
2023/02/14 01:41:27;;;;;;;6.20;5.20;;;;;;;;;;4987466;28;20050;-65
2023/02/14 01:44:11;;;;;;;6.82;5.22;;;;;;;;;;4987539;28;20042;-68
2023/02/14 01:46:36;;;;;;;6.90;4.90;;;;;;;;;;4987562;28;20034;-65
2023/02/14 01:49:09;;;;;;;6.67;5.33;;;;;;;;;;4989768;28;20355;-65
2023/02/14 01:51:34;;;;;;;6.18;4.93;;;;;;;;;;4983307;28;20297;-67
2023/02/14 01:53:59;;;;;;;6.85;5.22;;;;;;;;;;4989545;28;20069;-68
2023/02/14 01:56:29;;;;;;;6.00;5.10;;;;;;;;;;4971561;28;20042;-66
2023/02/14 01:58:55;;;;;;;8.00;5.70;;;;;;;;;;4988782;28;20035;-61
2023/02/14 02:01:20;;;;;;;6.30;5.15;;;;;;;;;;4987580;28;20217;-64
2023/02/14 02:03:47;;;;;;;6.70;5.47;;;;;;;;;;4987450;28;20345;-64
2023/02/14 02:06:13;;;;;;;6.18;4.97;;;;;;;;;;4987755;28;20034;-66
2023/02/14 02:08:43;;;;;;;6.10;4.90;;;;;;;;;;4970414;28;20054;-65
2023/02/14 02:11:08;;;;;;;6.57;5.00;;;;;;;;;;4988290;28;20050;-67
2023/02/14 02:13:34;;;;;;;6.37;5.33;;;;;;;;;;4987953;28;20049;-63
2023/02/14 02:16:05;;;;;;;7.33;5.70;;;;;;;;;;4985830;28;20307;-64
2023/02/14 02:18:31;;;;;;;5.95;5.05;;;;;;;;;;4989712;28;20369;-63
2023/02/14 02:21:19;;;;;;;6.63;4.88;;;;;;;;;;4987241;28;20125;-64
2023/02/14 02:23:44;;;;;;;6.40;5.05;;;;;;;;;;4972216;28;20122;-67
2023/02/14 02:26:19;;;;;;;6.60;4.77;;;;;;;;;;4989305;28;20189;-67
2023/02/14 02:28:44;;;;;;;5.88;4.90;;;;;;;;;;4988264;28;20281;-62
2023/02/14 02:31:21;;;;;;;7.23;5.50;;;;;;;;;;4988253;28;20222;-67
2023/02/14 02:34:22;;;;;;;5.63;4.78;;;;;;;;;;4981539;28;20062;-65
2023/02/14 02:36:47;;;;;;;6.63;5.03;;;;;;;;;;4945996;28;20039;-67
2023/02/14 02:39:13;;;;;;;6.70;5.32;;;;;;;;;;4961866;28;20032;-66
2023/02/14 02:41:38;;;;;;;6.43;5.37;;;;;;;;;;4981999;28;20037;-64
2023/02/14 02:44:15;;;;;;;7.33;5.70;;;;;;;;;;4988187;28;20992;-67
2023/02/14 02:46:47;;;;;;;6.82;5.45;;;;;;;;;;4984839;28;20364;-65
2023/02/14 02:53:01;;;;;;;6.72;5.28;;;;;;;;;;4987775;28;20219;-63
2023/02/14 02:54:47;;;;;;;5.50;4.80;;;;;;;;;;4987273;28;20061;-66
2023/02/14 02:57:18;;;;;;;6.07;4.80;;;;;;;;;;4987842;28;20044;-67
2023/02/14 02:59:44;;;;;;;5.95;4.82;;;;;;;;;;4985290;28;20115;-64
2023/02/14 03:02:10;;;;;;;7.00;5.60;;;;;;;;;;4969394;28;20527;-60
2023/02/14 03:04:52;;;;;;;6.40;5.00;;;;;;;;;;4985232;28;20042;-62
2023/02/14 03:07:35;;;;;;;6.38;4.90;;;;;;;;;;4970384;28;20038;-66
2023/02/14 03:10:03;;;;;;;6.68;5.07;;;;;;;;;;4954578;28;20080;-66
2023/02/14 03:12:29;;;;;;;6.50;5.15;;;;;;;;;;4986910;28;20034;-65
2023/02/14 03:15:07;;;;;;;6.38;5.10;;;;;;;;;;4986766;28;20577;-63
2023/02/14 03:17:35;;;;;;;6.97;5.10;;;;;;;;;;4986599;28;20149;-68
2023/02/14 03:20:16;;;;;;;6.38;5.10;;;;;;;;;;4987630;28;20141;-63
2023/02/14 03:23:14;;;;;;;5.65;4.95;;;;;;;;;;5000071;28;20039;-63
2023/02/14 03:25:45;;;;;;;6.70;5.40;;;;;;;;;;4965030;28;20046;-67
2023/02/14 03:28:11;;;;;;;5.70;5.10;;;;;;;;;;4985401;28;20046;-63
2023/02/14 03:30:48;;;;;;;6.85;5.20;;;;;;;;;;4985180;28;20058;-61
2023/02/14 03:33:42;;;;;;;7.43;5.82;;;;;;;;;;4969838;28;20066;-67
2023/02/14 03:36:09;;;;;;;5.85;4.82;;;;;;;;;;4961259;28;20051;-68
2023/02/14 03:38:40;;;;;;;6.35;5.32;;;;;;;;;;4969787;28;20030;-65
2023/02/14 03:41:10;;;;;;;5.72;4.93;;;;;;;;;;4985245;28;20046;-68
2023/02/14 03:43:35;;;;;;;;;;;;;;;;;;4985980;28;20069;-66
2023/02/14 03:46:05;;;;;;;5.77;4.83;;;;;;;;;;4986594;28;19917;-63
2023/02/14 03:48:30;;;;;;;6.63;5.30;;;;;;;;;;4969213;28;20049;-64
2023/02/14 03:50:56;;;;;;;5.75;4.93;;;;;;;;;;4987064;28;20055;-63
2023/02/14 03:53:22;;;;;;;6.90;5.53;;;;;;;;;;4986479;28;20498;-61
2023/02/14 03:55:54;;;;;;;5.93;5.00;;;;;;;;;;4985346;28;20373;-66
2023/02/14 03:58:24;;;;;;;6.22;5.15;;;;;;;;;;4985867;28;20040;-66
2023/02/14 04:00:50;;;;;;;5.57;4.97;;;;;;;;;;4968860;28;20121;-66
2023/02/14 04:03:16;;;;;;;5.70;5.03;;;;;;;;;;4969348;28;20066;-64
2023/02/14 04:05:45;;;;;;;5.78;5.00;;;;;;;;;;4981632;28;20476;-65
2023/02/14 04:08:11;;;;;;;5.95;4.97;;;;;;;;;;4949682;28;20038;-60
2023/02/14 04:10:36;;;;;;;6.78;5.10;;;;;;;;;;4985144;28;20557;-60
2023/02/14 04:13:01;;;;;;;6.20;5.10;;;;;;;;;;4985838;28;20027;-67
2023/02/14 04:15:27;;;;;;;7.10;5.40;;;;;;;;;;4987150;28;20130;-67
2023/02/14 04:20:36;;;;;;;5.57;4.97;;;;;;;;;;4990709;28;20367;-61
2023/02/14 04:23:01;;;;;;;6.27;5.23;;;;;;;;;;4972549;28;20109;-60
2023/02/14 04:25:26;;;;;;;5.72;4.75;;;;;;;;;;4989245;28;20292;-66
2023/02/14 04:27:52;;;;;;;5.55;4.95;;;;;;;;;;4990549;28;20011;-64
2023/02/14 04:30:19;;;;;;;5.68;5.05;;;;;;;;;;4985851;28;20113;-65
2023/02/14 04:32:44;;;;;;;5.63;4.93;;;;;;;;;;4960559;28;20109;-64
2023/02/14 04:35:10;;;;;;;5.72;4.97;;;;;;;;;;4989413;28;20110;-59
2023/02/14 04:37:35;;;;;;;6.10;4.85;;;;;;;;;;4972871;28;20034;-64
2023/02/14 04:40:00;;;;;;;5.75;4.82;;;;;;;;;;4987425;28;20117;-62
2023/02/14 04:42:26;;;;;;;5.55;4.60;;;;;;;;;;4988904;28;20045;-63
2023/02/14 04:44:51;;;;;;;6.22;4.97;;;;;;;;;;4990083;28;20033;-66
2023/02/14 04:47:16;;;;;;;5.20;4.45;;;;;;;;;;4990224;28;20029;-61
2023/02/14 04:49:41;;;;;;;5.67;4.80;;;;;;;;;;4971356;28;20482;-64
2023/02/14 04:52:07;;;;;;;5.78;4.97;;;;;;;;;;4988750;28;20285;-64
2023/02/14 04:54:32;;;;;;;5.55;4.80;;;;;;;;;;4990093;28;20022;-62
2023/02/14 04:56:57;;;;;;;5.63;4.60;;;;;;;;;;4986232;28;20061;-66
2023/02/14 04:59:23;;;;;;;5.32;4.47;;;;;;;;;;4986781;28;20470;-64
2023/02/14 05:01:48;;;;;;;6.18;4.85;;;;;;;;;;4971773;28;20041;-63
2023/02/14 05:04:13;;;;;;;6.30;5.20;;;;;;;;;;4971810;28;20080;-68
2023/02/14 05:06:38;;;;;;;5.57;4.97;;;;;;;;;;4970772;28;20307;-67
2023/02/14 05:09:04;;;;;;;5.18;4.53;;;;;;;;;;4988426;28;20023;-65
2023/02/14 05:11:29;;;;;;;5.53;4.60;;;;;;;;;;4986753;28;20054;-62
2023/02/14 05:13:54;;;;;;;5.63;5.03;;;;;;;;;;4987833;28;20034;-66
2023/02/14 05:16:20;;;;;;;5.88;4.90;;;;;;;;;;4987917;28;20952;-63
2023/02/14 05:18:45;;;;;;;6.18;4.75;;;;;;;;;;4988043;28;20054;-60
2023/02/14 05:21:10;;;;;;;6.13;4.85;;;;;;;;;;4970237;28;20038;-66
2023/02/14 05:23:35;;;;;;;5.80;4.57;;;;;;;;;;4989265;28;20044;-60
2023/02/14 05:26:01;;;;;;;5.10;4.60;;;;;;;;;;4971437;28;20705;-66
2023/02/14 05:28:26;;;;;;;5.43;4.33;;;;;;;;;;4987174;28;20053;-65
2023/02/14 05:30:51;;;;;;;5.55;4.95;;;;;;;;;;4987991;28;20288;-62
2023/02/14 05:33:17;;;;;;;6.00;4.55;;;;;;;;;;4983681;28;20356;-65
2023/02/14 05:35:42;;;;;;;5.43;4.20;;;;;;;;;;4986528;28;20030;-64
2023/02/14 05:38:07;;;;;;;5.68;4.70;;;;;;;;;;4985898;28;20117;-61
2023/02/14 05:40:33;;;;;;;5.60;4.68;;;;;;;;;;4985199;28;20042;-60
2023/02/14 05:42:58;;;;;;;5.38;4.25;;;;;;;;;;4985921;28;20096;-61
2023/02/14 05:45:23;;;;;;;5.57;4.77;;;;;;;;;;4984921;28;20037;-62
2023/02/14 05:47:48;;;;;;;5.87;4.97;;;;;;;;;;4986397;28;20650;-66
2023/02/14 05:50:14;;;;;;;5.68;4.22;;;;;;;;;;4986198;28;20340;-68
2023/02/14 05:52:39;;;;;;;5.25;4.47;;;;;;;;;;4955156;28;20034;-66
2023/02/14 05:55:04;;;;;;;5.90;4.50;;;;;;;;;;4987719;28;20035;-66
2023/02/14 05:57:29;;;;;;;4.70;4.07;;;;;;;;;;4987051;28;20041;-66
2023/02/14 05:59:55;;;;;;;5.15;4.40;;;;;;;;;;4961311;28;20039;-66
2023/02/14 06:02:20;;;;;;;4.70;4.20;;;;;;;;;;4984835;28;20072;-69
2023/02/14 06:04:45;;;;;;;5.47;4.47;;;;;;;;;;4954629;28;21246;-64
2023/02/14 06:07:11;;;;;;;5.00;4.50;;;;;;;;;;4953965;28;20288;-57
2023/02/14 06:09:36;;;;;;;5.72;4.65;;;;;;;;;;4959431;28;20351;-60
2023/02/14 06:12:01;;;;;;;6.07;5.13;;;;;;;;;;4968770;28;20050;-60
2023/02/14 06:14:26;;;;;;;6.23;4.60;;;;;;;;;;4985302;28;20330;-61
2023/02/14 06:16:52;;;;;;;6.27;4.53;;;;;;;;;;4986423;28;20344;-61
2023/02/14 06:19:17;;;;;;;4.97;4.43;;;;;;;;;;4967054;28;20385;-61
2023/02/14 06:21:42;;;;;;;4.97;4.47;;;;;;;;;;4985843;28;20034;-58
2023/02/14 06:24:07;;;;;;;5.33;4.30;;;;;;;;;;4953137;28;20065;-63
2023/02/14 06:26:34;;;;;;;4.60;4.05;;;;;;;;;;4987353;28;20269;-67
2023/02/14 06:29:00;;;;;;;5.03;4.40;;;;;;;;;;4987160;28;20041;-67
2023/02/14 06:31:25;;;;;;;4.97;4.35;;;;;;;;;;4985094;28;20129;-66
2023/02/14 06:33:51;;;;;;;4.60;4.00;;;;;;;;;;4984789;28;20120;-59
2023/02/14 06:36:16;;;;;;;4.97;3.92;;;;;;;;;;4964026;28;20280;-66
2023/02/14 06:38:41;;;;;;;5.18;4.40;;;;;;;;;;4987367;28;20034;-63
2023/02/14 06:41:07;;;;;;;4.53;3.70;;;;;;;;;;4985624;28;20030;-62
2023/02/14 06:43:32;;;;;;;5.72;4.15;;;;;;;;;;4970118;28;20483;-69
2023/02/14 06:45:58;;;;;;;5.32;4.20;;;;;;;;;;4953279;28;20436;-67
2023/02/14 06:48:23;;;;;;;5.30;3.90;;;;;;;;;;4970145;28;20031;-65
2023/02/14 06:50:48;;;;;;;5.23;4.27;;;;;;;;;;4985188;28;20321;-60
2023/02/14 06:53:13;;;;;;;5.53;4.20;;;;;;;;;;4950907;28;20278;-68
2023/02/14 06:55:39;;;;;;;4.87;4.23;;;;;;;;;;4981950;28;20888;-75
2023/02/14 06:58:04;;;;;;;4.90;4.07;;;;;;;;;;4988070;28;20278;-69
2023/02/14 07:00:29;;;;;;;5.03;4.15;;;;;;;;;;4963690;28;20289;-67
2023/02/14 07:02:55;;;;;;;4.68;4.18;;;;;;;;;;4962945;28;21167;-60
2023/02/14 07:05:20;;;;;;;4.28;3.88;;;;;;;;;;4965772;28;20038;-59
2023/02/14 07:07:46;;;;;;;5.78;4.13;;;;;;;;;;4985356;28;20034;-63
2023/02/14 07:10:11;;;;;;;4.82;3.60;;;;;;;;;;4968658;28;20516;-60
2023/02/14 07:12:38;;;;;;;4.43;3.90;;;;;;;;;;4987963;28;20048;-58
2023/02/14 07:15:04;;;;;;;4.82;4.07;;;;;;;;;;4969656;28;20324;-64
2023/02/14 07:17:29;;;;;;;4.90;4.25;;;;;;;;;;4983375;28;20046;-67
2023/02/14 07:19:54;;;;;;;7.60;4.63;;;;;;;;;;4967962;28;20537;-69
2023/02/14 07:22:20;;;;;;;5.87;4.50;;;;;;;;;;4969786;28;20305;-66
2023/02/14 07:24:45;;;;;;;4.97;3.92;;;;;;;;;;4945290;28;20288;-60
2023/02/14 07:27:10;;;;;;;4.68;3.72;;;;;;;;;;4985737;28;20092;-65
2023/02/14 07:29:36;;;;;;;4.38;3.90;;;;;;;;;;4981584;28;20038;-64
2023/02/14 07:32:01;;;;;;;4.95;4.07;;;;;;;;;;4969357;28;20058;-60
2023/02/14 07:34:26;;;;;;;5.60;4.22;;;;;;;;;;4969578;28;20487;-63
2023/02/14 07:36:52;;;;;;;7.40;4.20;;;;;;;;;;4983021;28;20026;-56
2023/02/14 07:39:17;;;;;;;7.05;4.28;;;;;;;;;;4985252;28;20297;-67
2023/02/14 07:41:42;;;;;;;6.57;4.40;;;;;;;;;;4985324;28;20035;-64
2023/02/14 07:44:08;;;;;;;5.53;4.57;;;;;;;;;;4984962;28;20422;-69
2023/02/14 07:46:33;;;;;;;5.72;4.13;;;;;;;;;;4981398;28;20038;-65
2023/02/14 07:48:58;;;;;;;4.85;4.10;;;;;;;;;;4983958;28;20049;-65
2023/02/14 07:51:23;;;;;;;5.82;4.32;;;;;;;;;;4982647;28;20046;-68
2023/02/14 07:53:49;;;;;;;5.90;4.60;;;;;;;;;;4964904;28;20254;-66
2023/02/14 07:56:14;;;;;;;4.95;4.32;;;;;;;;;;4954361;28;20600;-66
2023/02/14 07:58:39;;;;;;;6.00;4.60;;;;;;;;;;4949688;28;20068;-61
2023/02/14 08:01:05;;;;;;;5.55;4.25;;;;;;;;;;4981494;28;21600;-56
2023/02/14 08:03:30;;;;;;;5.80;4.60;;;;;;;;;;4988979;28;20507;-61
2023/02/14 08:05:58;;;;;;;4.97;4.40;;;;;;;;;;4973600;28;20282;-65
2023/02/14 08:08:24;;;;;;;5.45;4.68;;;;;;;;;;4963501;28;20030;-65
2023/02/14 08:10:49;;;;;;;5.55;4.43;;;;;;;;;;4976700;28;20074;-63
2023/02/14 08:13:15;;;;;;;5.23;4.30;;;;;;;;;;4972990;28;20467;-68
2023/02/14 08:18:26;;;;;;;6.32;4.57;;;;;;;;;;4989770;28;20083;-62
2023/02/14 08:20:51;;;;;;;5.50;4.22;;;;;;;;;;4981798;28;20042;-64
2023/02/14 08:23:16;;;;;;;6.07;4.47;;;;;;;;;;4987142;28;20552;-59
2023/02/14 08:25:42;;;;;;;4.97;4.47;;;;;;;;;;4968966;28;20368;-64
2023/02/14 08:28:07;;;;;;;4.90;4.40;;;;;;;;;;4969413;28;20069;-62
2023/02/14 08:30:32;;;;;;;5.80;4.50;;;;;;;;;;4985362;28;20313;-61
2023/02/14 08:32:58;;;;;;;6.38;4.60;;;;;;;;;;4955147;28;20359;-61
2023/02/14 08:35:23;;;;;;;5.30;4.80;;;;;;;;;;4986236;28;20519;-60
2023/02/14 08:37:48;;;;;;;5.22;4.72;;;;;;;;;;4983728;28;20332;-60
2023/02/14 08:40:13;;;;;;;5.50;4.20;;;;;;;;;;4985305;28;20042;-57
2023/02/14 08:42:39;;;;;;;6.00;4.40;;;;;;;;;;4979847;28;20369;-63
2023/02/14 08:45:04;;;;;;;5.57;4.33;;;;;;;;;;4985917;28;20757;-64
2023/02/14 08:47:34;;;;;;;6.15;4.68;;;;;;;;;;4951013;28;20312;-62
2023/02/14 08:49:59;;;;;;;6.20;4.43;;;;;;;;;;4970963;28;20113;-63
2023/02/14 08:52:24;;;;;;;6.10;4.60;;;;;;;;;;4953752;28;20050;-64
2023/02/14 08:54:50;;;;;;;5.17;4.27;;;;;;;;;;4971381;28;20030;-65
2023/02/14 08:57:15;;;;;;;6.10;4.73;;;;;;;;;;4973467;28;20313;-62
2023/02/14 08:59:40;;;;;;;6.57;5.05;;;;;;;;;;4988919;28;20372;-63
2023/02/14 09:02:05;;;;;;;5.27;4.67;;;;;;;;;;4971373;28;20136;-61
2023/02/14 09:04:33;;;;;;;5.53;4.60;;;;;;;;;;4947783;28;20309;-65
2023/02/14 09:06:58;;;;;;;5.72;5.07;;;;;;;;;;4988610;28;20301;-62
2023/02/14 09:09:23;;;;;;;5.77;4.70;;;;;;;;;;4987638;28;20434;-60
2023/02/14 09:11:48;;;;;;;5.70;4.37;;;;;;;;;;4978944;28;20310;-64
2023/02/14 09:14:14;;;;;;;5.23;4.67;;;;;;;;;;4952661;28;20321;-63
2023/02/14 09:16:40;;;;;;;5.43;4.53;;;;;;;;;;4983351;28;20322;-62
2023/02/14 09:19:05;;;;;;;5.50;4.70;;;;;;;;;;4952276;28;20039;-64
2023/02/14 09:21:30;;;;;;;4.97;4.35;;;;;;;;;;4968410;28;20282;-62
2023/02/14 09:23:56;;;;;;;5.10;4.47;;;;;;;;;;4971509;28;20046;-58
2023/02/14 09:26:21;;;;;;;5.63;4.88;;;;;;;;;;4955387;28;20030;-64
2023/02/14 09:28:46;;;;;;;6.13;4.60;;;;;;;;;;4984411;28;20130;-57
2023/02/14 09:31:12;;;;;;;5.78;4.82;;;;;;;;;;4967099;28;20049;-62
2023/02/14 09:33:37;;;;;;;5.90;4.85;;;;;;;;;;4986095;28;20057;-59
2023/02/14 09:38:46;;;;;;;5.97;4.70;;;;;;;;;;4964638;28;20456;-59
2023/02/14 09:41:20;;;;;;;5.60;4.85;;;;;;;;;;4986939;28;20034;-59
2023/02/14 09:43:50;;;;;;;5.35;4.40;;;;;;;;;;4987099;28;20038;-60
2023/02/14 09:46:16;;;;;;;5.90;4.30;;;;;;;;;;4966937;28;20058;-65
2023/02/14 09:48:42;;;;;;;6.23;4.77;;;;;;;;;;4968812;28;20851;-66
2023/02/14 09:51:11;;;;;;;5.80;4.30;;;;;;;;;;4953471;28;20316;-63
2023/02/14 09:53:43;;;;;;;5.00;4.45;;;;;;;;;;4969288;28;20518;-59
2023/02/14 09:56:09;;;;;;;5.63;4.75;;;;;;;;;;4967955;28;20467;-67
2023/02/14 09:58:34;;;;;;;5.97;4.80;;;;;;;;;;4985572;28;20039;-62
2023/02/14 10:01:14;;;;;;;5.30;4.47;;;;;;;;;;4969020;28;20445;-58
2023/02/14 10:03:46;;;;;;;5.28;4.78;;;;;;;;;;4980845;28;20035;-56
2023/02/14 10:06:14;;;;;;;5.75;4.75;;;;;;;;;;4977214;28;20513;-57
2023/02/14 10:08:42;;;;;;;5.53;4.70;;;;;;;;;;4973392;28;20078;-59
2023/02/14 10:11:09;;;;;;;5.20;4.43;;;;;;;;;;4970334;28;20060;-63
2023/02/14 10:13:42;;;;;;;5.47;4.40;;;;;;;;;;4987328;28;20489;-60
2023/02/14 10:16:08;;;;;;;5.05;4.18;;;;;;;;;;4987683;28;20116;-62
2023/02/14 10:18:41;;;;;;;6.25;4.80;;;;;;;;;;4969698;28;20034;-61
2023/02/14 10:21:07;;;;;;;4.72;4.22;;;;;;;;;;4948563;28;20176;-62
2023/02/14 10:23:33;;;;;;;6.00;4.60;;;;;;;;;;4988362;28;20042;-61
2023/02/14 10:25:59;;;;;;;5.25;4.50;;;;;;;;;;4988106;28;20804;-59
2023/02/14 10:28:29;;;;;;;5.00;4.07;;;;;;;;;;4986935;28;20034;-62
2023/02/14 10:31:04;;;;;;;5.32;4.60;;;;;;;;;;4956270;28;20047;-58
2023/02/14 10:33:29;;;;;;;5.22;4.45;;;;;;;;;;4963446;28;20050;-60
2023/02/14 10:35:57;;;;;;;6.27;4.37;;;;;;;;;;4950211;28;20042;-60
2023/02/14 10:38:32;;;;;;;6.40;4.82;;;;;;;;;;4978736;28;20293;-60
2023/02/14 10:41:06;;;;;;;5.65;4.28;;;;;;;;;;4981638;28;20047;-63
2023/02/14 10:43:47;;;;;;;6.53;4.40;;;;;;;;;;4981873;28;20077;-59
2023/02/14 10:46:31;;;;;;;5.88;4.72;;;;;;;;;;4953734;28;20566;-60
2023/02/14 10:49:09;;;;;;;5.25;4.43;;;;;;;;;;4984472;28;20203;-60
2023/02/14 10:51:45;;;;;;;4.85;4.28;;;;;;;;;;4984654;28;20049;-61
2023/02/14 10:54:24;;;;;;;6.22;4.85;;;;;;;;;;4985910;28;20045;-63
2023/02/14 10:57:13;;;;;;;5.27;4.23;;;;;;;;;;4985684;28;20042;-64
2023/02/14 10:59:55;;;;;;;6.72;4.78;;;;;;;;;;4979357;28;20340;-63
2023/02/14 11:02:25;;;;;;;4.78;4.15;;;;;;;;;;4986255;28;20430;-61
2023/02/14 11:04:50;;;;;;;5.85;4.45;;;;;;;;;;4952650;28;20034;-66
2023/02/14 11:07:16;;;;;;;5.50;4.65;;;;;;;;;;4985337;28;20618;-61
2023/02/14 11:09:42;;;;;;;5.90;4.82;;;;;;;;;;4968636;28;20045;-59
2023/02/14 11:12:07;;;;;;;5.72;5.00;;;;;;;;;;4986720;28;20121;-64
2023/02/14 11:14:35;;;;;;;4.57;4.00;;;;;;;;;;4985348;28;20031;-58
2023/02/14 11:17:20;;;;;;;6.30;4.88;;;;;;;;;;4969772;28;20273;-62
2023/02/14 11:19:54;;;;;;;5.72;4.63;;;;;;;;;;4983738;28;20463;-62
2023/02/14 11:22:27;;;;;;;6.07;4.55;;;;;;;;;;4966952;28;20066;-64
2023/02/14 11:24:52;;;;;;;5.57;4.50;;;;;;;;;;4981286;28;20069;-63
2023/02/14 11:27:17;;;;;;;5.30;4.80;;;;;;;;;;4985672;28;20460;-62
2023/02/14 11:29:43;;;;;;;5.67;4.60;;;;;;;;;;4985580;28;20359;-61
2023/02/14 11:32:19;;;;;;;6.80;5.18;;;;;;;;;;4975423;28;20329;-60
2023/02/14 11:34:45;;;;;;;6.43;4.70;;;;;;;;;;4968281;28;20467;-63
2023/02/14 11:37:29;;;;;;;6.13;4.68;;;;;;;;;;4984288;28;20057;-60
2023/02/14 11:39:55;;;;;;;5.43;4.50;;;;;;;;;;4968695;28;20034;-61
2023/02/14 11:42:31;;;;;;;5.50;4.28;;;;;;;;;;4987940;28;20114;-57
2023/02/14 11:44:57;;;;;;;4.93;4.22;;;;;;;;;;4980342;28;20047;-61
2023/02/14 11:47:26;;;;;;;5.75;4.60;;;;;;;;;;4985265;28;20574;-57
2023/02/14 11:49:55;;;;;;;4.90;4.30;;;;;;;;;;4970288;28;20124;-58
2023/02/14 11:52:25;;;;;;;4.90;4.32;;;;;;;;;;4985140;28;20046;-56
2023/02/14 11:54:50;;;;;;;6.55;5.07;;;;;;;;;;4968456;28;20022;-61
2023/02/14 11:57:18;;;;;;;5.83;4.30;;;;;;;;;;4985548;28;20026;-61
2023/02/14 11:59:44;;;;;;;4.85;4.15;;;;;;;;;;4986893;28;20312;-64
2023/02/14 12:02:16;;;;;;;5.30;4.50;;;;;;;;;;4986811;28;20502;-62
2023/02/14 12:04:42;;;;;;;5.10;4.22;;;;;;;;;;4953767;28;20030;-61
2023/02/14 12:07:15;;;;;;;5.78;4.78;;;;;;;;;;4979845;28;20026;-63
2023/02/14 12:09:42;;;;;;;5.00;4.35;;;;;;;;;;4969424;28;20093;-63
2023/02/14 12:12:17;;;;;;;5.90;4.47;;;;;;;;;;4986391;28;20085;-62
2023/02/14 12:14:43;;;;;;;5.95;4.35;;;;;;;;;;4965108;28;20073;-61
2023/02/14 12:17:28;;;;;;;6.65;5.10;;;;;;;;;;4969465;28;20045;-62
2023/02/14 12:19:56;;;;;;;7.63;5.63;;;;;;;;;;4969148;28;20065;-62
2023/02/14 12:22:23;;;;;;;8.10;6.18;;;;;;;;;;4986305;28;20038;-61
2023/02/14 12:25:07;;;;;;;9.55;6.57;;;;;;;;;;4981041;28;20046;-61
2023/02/14 12:27:45;;;;;;;11.95;7.45;;;;;;;;;;4978307;28;20363;-64
2023/02/14 12:30:12;;;;;;;10.70;7.10;;;;;;;;;;4985284;28;20481;-59
2023/02/14 12:32:38;;;;;;;11.52;6.85;;;;;;;;;;4985992;28;20526;-64
2023/02/14 12:35:12;;;;;;;9.68;6.55;;;;;;;;;;4969616;28;20067;-56
2023/02/14 12:37:57;;;;;;;9.50;6.40;;;;;;;;;;4972230;28;20038;-58
2023/02/14 12:40:41;;;;;;;9.38;6.63;;;;;;;;;;4990047;28;20053;-60
2023/02/14 12:43:25;;;;;;;7.85;5.95;;;;;;;;;;4981705;28;20038;-59
2023/02/14 12:45:53;;;;;;;9.48;6.10;;;;;;;;;;4973357;28;20109;-61
2023/02/14 12:48:33;;;;;;;6.78;5.05;;;;;;;;;;4982456;28;20907;-61
2023/02/14 12:51:09;;;;;;;7.65;5.60;;;;;;;;;;4988939;28;20050;-57
2023/02/14 12:53:54;;;;;;;8.10;5.55;;;;;;;;;;4971487;28;20027;-58
2023/02/14 12:56:20;;;;;;;7.75;5.75;;;;;;;;;;4988428;28;20042;-59
2023/02/14 12:59:03;;;;;;;6.65;5.15;;;;;;;;;;4988930;28;20033;-60
2023/02/14 13:01:38;;;;;;;7.20;5.25;;;;;;;;;;4986640;28;20165;-59
2023/02/14 13:04:24;;;;;;;8.68;5.50;;;;;;;;;;4986975;28;20042;-58
2023/02/14 13:06:51;;;;;;;7.85;5.45;;;;;;;;;;4971142;28;20052;-60
2023/02/14 13:09:19;;;;;;;7.22;5.25;;;;;;;;;;4971256;28;20089;-59
2023/02/14 13:11:51;;;;;;;7.38;4.93;;;;;;;;;;4987173;28;20177;-59
2023/02/14 13:14:23;;;;;;;8.15;5.50;;;;;;;;;;4988163;28;20611;-60
2023/02/14 13:16:50;;;;;;;6.93;4.97;;;;;;;;;;4984753;28;20708;-60
2023/02/14 13:19:36;;;;;;;6.55;5.43;;;;;;;;;;4972472;28;20046;-68
2023/02/14 13:22:02;;;;;;;6.72;4.80;;;;;;;;;;4975288;28;20067;-62
2023/02/14 13:24:37;;;;;;;7.57;4.65;;;;;;;;;;4984758;28;20112;-65
2023/02/14 13:27:03;;;;;;;8.93;4.68;;;;;;;;;;4988989;28;20065;-61
2023/02/14 13:29:35;;;;;;;5.95;4.63;;;;;;;;;;4955785;28;20034;-59
2023/02/14 13:32:01;;;;;;;6.65;4.72;;;;;;;;;;4971685;28;20058;-59
2023/02/14 13:34:27;;;;;;;5.97;4.73;;;;;;;;;;4989609;28;20040;-60
2023/02/14 13:36:53;;;;;;;6.72;4.55;;;;;;;;;;4967603;28;20391;-58
2023/02/14 13:39:24;;;;;;;6.43;4.45;;;;;;;;;;4967976;28;20038;-61
2023/02/14 13:41:49;;;;;;;6.15;4.88;;;;;;;;;;4976273;28;20057;-59
2023/02/14 13:44:34;;;;;;;6.77;4.63;;;;;;;;;;4980893;28;20153;-61
2023/02/14 13:46:59;;;;;;;6.57;4.30;;;;;;;;;;4986168;28;20305;-59
2023/02/14 13:49:25;;;;;;;6.07;4.43;;;;;;;;;;4968814;28;20877;-60
2023/02/14 13:51:51;;;;;;;5.97;4.43;;;;;;;;;;4988230;28;20349;-64
2023/02/14 13:54:29;;;;;;;5.25;4.20;;;;;;;;;;4987343;28;20042;-60
2023/02/14 13:56:55;;;;;;;5.85;4.63;;;;;;;;;;4987784;28;20473;-66
2023/02/14 13:59:30;;;;;;;6.45;4.45;;;;;;;;;;4970293;28;20038;-65
2023/02/14 14:02:16;;;;;;;5.65;4.63;;;;;;;;;;4970184;28;20058;-61
2023/02/14 14:04:41;;;;;;;5.70;4.28;;;;;;;;;;4985195;28;20046;-61
2023/02/14 14:07:13;;;;;;;6.07;4.80;;;;;;;;;;4947984;28;20081;-60
2023/02/14 14:09:41;;;;;;;5.68;4.65;;;;;;;;;;4987408;28;20304;-60
2023/02/14 14:12:29;;;;;;;4.88;3.72;;;;;;;;;;4970137;28;20050;-63
2023/02/14 14:15:07;;;;;;;4.85;3.97;;;;;;;;;;4963619;28;20101;-60
2023/02/14 14:17:38;;;;;;;5.20;4.30;;;;;;;;;;4974149;28;20034;-62
2023/02/14 14:20:17;;;;;;;5.30;4.25;;;;;;;;;;4975503;28;20022;-60
2023/02/14 14:22:46;;;;;;;5.97;4.57;;;;;;;;;;4985912;28;20164;-62
2023/02/14 14:25:11;;;;;;;5.68;4.18;;;;;;;;;;4970049;28;20049;-61
2023/02/14 14:27:40;;;;;;;5.17;4.17;;;;;;;;;;4984898;28;20476;-60
2023/02/14 14:30:06;;;;;;;5.60;4.20;;;;;;;;;;4970376;28;20372;-60
2023/02/14 14:32:36;;;;;;;5.32;4.28;;;;;;;;;;4976468;28;20050;-62
2023/02/14 14:35:02;;;;;;;5.13;4.07;;;;;;;;;;4970131;28;20043;-62
2023/02/14 14:37:29;;;;;;;5.43;4.10;;;;;;;;;;4986323;28;20309;-62
2023/02/14 14:39:55;;;;;;;6.03;4.40;;;;;;;;;;4986676;28;20030;-62
2023/02/14 14:42:20;;;;;;;5.15;4.05;;;;;;;;;;4986193;28;20042;-60
2023/02/14 14:44:47;;;;;;;4.35;3.75;;;;;;;;;;4970209;28;20541;-60
2023/02/14 14:47:16;;;;;;;5.30;4.22;;;;;;;;;;4968271;28;20136;-58
2023/02/14 14:49:42;;;;;;;4.28;3.75;;;;;;;;;;4972686;28;20046;-59
2023/02/14 14:52:10;;;;;;;5.10;4.03;;;;;;;;;;4985441;28;20057;-61
2023/02/14 14:54:36;;;;;;;4.20;3.40;;;;;;;;;;4969801;28;20360;-59
2023/02/14 14:57:01;;;;;;;5.67;4.00;;;;;;;;;;4980834;28;20109;-60
2023/02/14 14:59:33;;;;;;;4.68;3.67;;;;;;;;;;4953403;28;20296;-57
2023/02/14 15:01:58;;;;;;;5.28;3.90;;;;;;;;;;4964935;28;20031;-59
2023/02/14 15:04:23;;;;;;;4.17;3.67;;;;;;;;;;4986606;28;20042;-62